createdAt,value
2018-06-14T00:01:51.648Z,10.13
2018-06-14T00:04:19.899Z,10.60
2018-06-14T00:06:47.912Z,9.40
2018-06-14T00:09:15.865Z,11.00
2018-06-14T00:11:43.853Z,10.87
2018-06-14T00:14:11.893Z,9.90
2018-06-14T00:16:39.917Z,9.30
2018-06-14T00:19:07.904Z,10.07
2018-06-14T00:21:36.310Z,9.30
2018-06-14T00:24:04.575Z,10.50
2018-06-14T00:26:32.845Z,9.83
2018-06-14T00:29:01.152Z,9.23
2018-06-14T00:31:29.493Z,8.20
2018-06-14T00:33:57.549Z,8.73
2018-06-14T00:36:25.475Z,9.37
2018-06-14T00:38:53.680Z,10.20
2018-06-14T00:41:21.790Z,8.93
2018-06-14T00:43:49.821Z,8.03
2018-06-14T00:46:17.824Z,9.30
2018-06-14T00:48:45.834Z,9.33
2018-06-14T00:51:13.874Z,8.40
2018-06-14T00:53:41.844Z,7.07
2018-06-14T00:56:09.806Z,8.37
2018-06-14T00:58:37.845Z,7.43
2018-06-14T01:01:05.888Z,8.17
2018-06-14T01:03:33.997Z,8.27
2018-06-14T01:06:02.409Z,7.13
2018-06-14T01:08:30.858Z,7.30
2018-06-14T01:10:59.477Z,6.67
2018-06-14T01:13:28.281Z,8.03
2018-06-14T01:15:56.198Z,8.10
2018-06-14T01:18:24.242Z,7.60
2018-06-14T01:20:52.337Z,7.07
2018-06-14T01:23:20.504Z,6.83
2018-06-14T01:25:48.521Z,8.00
2018-06-14T01:28:16.685Z,7.87
2018-06-14T01:30:44.714Z,7.70
2018-06-14T01:33:12.763Z,7.23
2018-06-14T01:35:40.785Z,7.33
2018-06-14T01:38:14.281Z,6.40
2018-06-14T01:40:42.292Z,6.90
2018-06-14T01:43:10.241Z,8.43
2018-06-14T01:45:38.210Z,6.80
2018-06-14T01:48:06.433Z,6.70
2018-06-14T01:50:34.637Z,7.30
2018-06-14T01:53:03.061Z,6.00
2018-06-14T01:55:33.883Z,7.00
2018-06-14T01:58:03.292Z,7.20
2018-06-14T02:00:31.726Z,8.30
2018-06-14T02:03:00.212Z,6.93
2018-06-14T02:05:29.008Z,7.03
2018-06-14T02:07:57.813Z,7.67
2018-06-14T02:10:26.397Z,7.00
2018-06-14T02:12:54.382Z,6.87
2018-06-14T02:15:22.463Z,8.23
2018-06-14T02:17:50.697Z,7.70
2018-06-14T02:20:18.924Z,8.27
2018-06-14T02:22:46.854Z,7.40
2018-06-14T02:25:14.820Z,7.90
2018-06-14T02:27:42.778Z,8.67
2018-06-14T02:30:10.758Z,7.73
2018-06-14T02:32:38.726Z,8.40
2018-06-14T02:35:06.953Z,7.93
2018-06-14T02:37:41.846Z,7.50
2018-06-14T02:40:11.582Z,7.43
2018-06-14T02:42:39.882Z,8.83
2018-06-14T02:45:07.977Z,6.83
2018-06-14T02:47:36.185Z,7.17
2018-06-14T02:50:04.589Z,8.67
2018-06-14T02:52:32.886Z,7.43
2018-06-14T02:55:01.403Z,8.20
2018-06-14T02:57:29.893Z,8.03
2018-06-14T02:59:58.868Z,7.90
2018-06-14T03:02:27.230Z,6.90
2018-06-14T03:04:55.341Z,6.87
2018-06-14T03:07:28.970Z,7.00
2018-06-14T03:09:57.062Z,8.27
2018-06-14T03:12:25.071Z,7.07
2018-06-14T03:14:53.226Z,7.13
2018-06-14T03:17:22.039Z,7.67
2018-06-14T03:19:51.853Z,7.30
2018-06-14T03:22:20.610Z,6.90
2018-06-14T03:24:48.577Z,6.53
2018-06-14T03:27:16.914Z,6.47
2018-06-14T03:29:44.965Z,6.07
2018-06-14T03:32:13.081Z,6.17
2018-06-14T03:34:41.009Z,7.50
2018-06-14T03:37:09.087Z,7.30
2018-06-14T03:39:37.051Z,7.87
2018-06-14T03:42:05.964Z,7.03
2018-06-14T03:44:35.652Z,6.23
2018-06-14T03:47:04.866Z,6.50
2018-06-14T03:49:33.266Z,7.37
2018-06-14T03:52:01.742Z,7.43
2018-06-14T03:54:30.346Z,8.27
2018-06-14T03:56:58.790Z,7.40
2018-06-14T03:59:27.468Z,7.77
2018-06-14T04:01:55.559Z,6.73
2018-06-14T04:04:23.486Z,7.10
2018-06-14T04:06:51.740Z,8.10
2018-06-14T04:09:19.872Z,7.53
2018-06-14T04:11:47.845Z,6.97
2018-06-14T04:14:15.812Z,7.13
2018-06-14T04:16:45.769Z,7.70
2018-06-14T04:19:13.717Z,6.40
2018-06-14T04:21:41.644Z,6.47
2018-06-14T04:24:09.598Z,7.40
2018-06-14T04:26:37.646Z,7.30
2018-06-14T04:29:05.766Z,6.30
2018-06-14T04:31:34.326Z,6.37
2018-06-14T04:34:02.934Z,7.83
2018-06-14T04:36:31.416Z,6.20
2018-06-14T04:39:00.318Z,7.03
2018-06-14T04:41:28.818Z,6.73
2018-06-14T04:43:57.218Z,6.80
2018-06-14T04:46:25.305Z,7.63
2018-06-14T04:48:53.985Z,6.57
2018-06-14T04:51:22.208Z,6.80
2018-06-14T04:53:50.692Z,7.40
2018-06-14T04:56:18.744Z,8.50
2018-06-14T04:58:46.754Z,7.67
2018-06-14T05:01:16.322Z,7.70
2018-06-14T05:03:44.409Z,6.73
2018-06-14T05:06:12.420Z,7.30
2018-06-14T05:08:40.485Z,7.00
2018-06-14T05:11:08.604Z,8.10
2018-06-14T05:13:36.814Z,7.03
2018-06-14T05:16:05.269Z,5.80
2018-06-14T05:18:33.671Z,7.77
2018-06-14T05:21:02.013Z,6.60
2018-06-14T05:23:30.492Z,6.70
2018-06-14T05:25:59.737Z,7.03
2018-06-14T05:28:28.989Z,8.17
2018-06-14T05:30:57.078Z,6.70
2018-06-14T05:33:25.256Z,7.80
2018-06-14T05:35:53.570Z,7.80
2018-06-14T05:38:22.232Z,7.47
2018-06-14T05:40:50.851Z,6.87
2018-06-14T05:43:18.957Z,10.10
2018-06-14T05:45:47.076Z,6.90
2018-06-14T05:48:15.133Z,6.30
2018-06-14T05:50:43.189Z,7.60
2018-06-14T05:53:11.771Z,7.07
2018-06-14T05:55:39.952Z,6.87
2018-06-14T05:58:08.052Z,7.10
2018-06-14T06:00:36.903Z,6.40
2018-06-14T06:03:05.439Z,8.00
2018-06-14T06:05:34.230Z,6.30
2018-06-14T06:08:02.751Z,6.03
2018-06-14T06:10:33.775Z,5.83
2018-06-14T06:13:02.200Z,5.03
2018-06-14T06:15:30.896Z,5.20
2018-06-14T06:17:59.702Z,4.30
2018-06-14T06:20:28.575Z,4.57
2018-06-14T06:22:56.678Z,4.83
2018-06-14T06:25:25.374Z,5.07
2018-06-14T06:27:53.370Z,5.27
2018-06-14T06:30:21.565Z,5.27
2018-06-14T06:32:49.730Z,4.43
2018-06-14T06:35:18.628Z,4.90
2018-06-14T06:37:46.777Z,4.40
2018-06-14T06:40:14.762Z,8.80
2018-06-14T06:42:42.865Z,4.33
2018-06-14T06:45:11.401Z,4.20
2018-06-14T06:47:40.635Z,4.60
2018-06-14T06:50:10.359Z,3.20
2018-06-14T06:52:39.485Z,3.00
2018-06-14T06:55:07.944Z,7.00
2018-06-14T06:57:36.803Z,8.73
2018-06-14T07:00:05.437Z,5.37
2018-06-14T07:02:33.746Z,4.67
2018-06-14T07:05:02.613Z,4.73
2018-06-14T07:07:31.350Z,4.00
2018-06-14T07:09:59.866Z,3.93
2018-06-14T07:12:28.978Z,4.80
2018-06-14T07:14:57.270Z,4.83
2018-06-14T07:17:25.523Z,4.00
2018-06-14T07:19:53.747Z,5.80
2018-06-14T07:22:22.209Z,5.00
2018-06-14T07:24:50.393Z,3.70
2018-06-14T07:27:19.473Z,4.03
2018-06-14T07:29:47.948Z,4.23
2018-06-14T07:32:16.839Z,5.13
2018-06-14T07:34:45.289Z,3.97
2018-06-14T07:37:13.317Z,3.50
2018-06-14T07:39:41.583Z,3.67
2018-06-14T07:42:09.838Z,4.10
2018-06-14T07:44:38.090Z,3.70
2018-06-14T07:47:06.572Z,3.60
2018-06-14T07:49:34.996Z,3.93
2018-06-14T07:52:03.553Z,3.50
2018-06-14T07:57:14.854Z,3.10
2018-06-14T08:02:25.601Z,3.90
2018-06-14T08:10:20.027Z,3.63
2018-06-14T08:12:48.906Z,4.00
2018-06-14T08:15:18.099Z,2.83
2018-06-14T08:17:46.170Z,2.43
2018-06-14T08:20:14.470Z,3.60
2018-06-14T08:22:42.948Z,4.13
2018-06-14T08:25:11.239Z,2.83
2018-06-14T08:27:39.504Z,4.73
2018-06-14T08:30:07.696Z,2.73
2018-06-14T08:32:41.597Z,3.00
2018-06-14T08:35:10.209Z,2.40
2018-06-14T08:37:38.722Z,2.93
2018-06-14T08:40:07.184Z,2.67
2018-06-14T08:42:35.435Z,3.40
2018-06-14T08:45:03.995Z,2.93
2018-06-14T08:47:32.408Z,3.30
2018-06-14T08:50:00.839Z,3.70
2018-06-14T08:52:29.860Z,3.20
2018-06-14T08:54:58.051Z,3.63
2018-06-14T08:57:26.205Z,3.30
2018-06-14T08:59:54.874Z,3.07
2018-06-14T09:02:23.647Z,3.30
2018-06-14T09:04:51.922Z,6.50
2018-06-14T09:07:20.027Z,4.03
2018-06-14T09:09:49.223Z,3.80
2018-06-14T09:12:17.612Z,4.07
2018-06-14T09:14:45.811Z,3.33
2018-06-14T09:17:13.985Z,3.27
2018-06-14T09:19:42.266Z,3.40
2018-06-14T09:22:10.583Z,4.10
2018-06-14T09:24:39.090Z,3.60
2018-06-14T09:27:07.625Z,4.20
2018-06-14T09:29:36.018Z,3.30
2018-06-14T09:32:04.371Z,3.80
2018-06-14T09:34:32.695Z,2.97
2018-06-14T09:37:01.074Z,2.67
2018-06-14T09:39:29.796Z,3.50
2018-06-14T09:41:57.958Z,3.60
2018-06-14T09:44:26.125Z,3.37
2018-06-14T09:46:54.405Z,2.90
2018-06-14T09:49:22.493Z,3.30
2018-06-14T09:51:50.602Z,3.10
2018-06-14T09:54:18.648Z,3.40
2018-06-14T09:56:47.285Z,4.37
2018-06-14T09:59:15.438Z,2.63
2018-06-14T10:01:43.493Z,3.03
2018-06-14T10:04:11.607Z,2.93
2018-06-14T10:06:39.823Z,2.77
2018-06-14T10:09:09.582Z,3.00
2018-06-14T10:11:37.859Z,3.10
2018-06-14T10:14:07.423Z,3.57
2018-06-14T10:16:36.612Z,3.53
2018-06-14T10:19:04.969Z,2.77
2018-06-14T10:21:33.248Z,3.53
2018-06-14T10:24:06.892Z,3.47
2018-06-14T10:26:35.098Z,3.10
2018-06-14T10:29:03.331Z,5.30
2018-06-14T10:31:33.722Z,3.27
2018-06-14T10:34:02.076Z,3.73
2018-06-14T10:36:31.480Z,3.73
2018-06-14T10:39:01.472Z,3.27
2018-06-14T10:41:30.373Z,3.50
2018-06-14T10:43:58.989Z,3.57
2018-06-14T10:46:27.265Z,3.33
2018-06-14T10:48:55.593Z,3.83
2018-06-14T10:51:23.795Z,2.90
2018-06-14T10:53:52.075Z,3.17
2018-06-14T10:56:23.947Z,3.50
2018-06-14T10:58:54.485Z,3.47
2018-06-14T11:01:25.000Z,3.50
2018-06-14T11:03:54.774Z,3.17
2018-06-14T11:06:23.014Z,3.23
2018-06-14T11:08:51.449Z,4.23
2018-06-14T11:11:21.959Z,3.53
2018-06-14T11:13:50.220Z,3.03
2018-06-14T11:16:18.669Z,4.00
2018-06-14T11:18:46.883Z,3.60
2018-06-14T11:21:16.189Z,3.17
2018-06-14T11:23:44.279Z,2.90
2018-06-14T11:26:12.408Z,3.13
2018-06-14T11:28:40.690Z,2.87
2018-06-14T11:31:09.210Z,3.13
2018-06-14T11:33:37.447Z,2.65
2018-06-14T11:36:05.853Z,3.20
2018-06-14T11:38:34.252Z,2.90
2018-06-14T11:41:02.415Z,3.27
2018-06-14T11:43:30.841Z,3.37
2018-06-14T11:45:59.689Z,3.40
2018-06-14T11:48:28.097Z,3.60
2018-06-14T11:50:59.025Z,4.70
2018-06-14T11:53:27.316Z,3.90
2018-06-14T11:55:55.639Z,2.60
2018-06-14T11:58:24.009Z,3.00
2018-06-14T12:00:52.459Z,3.73
2018-06-14T12:03:20.554Z,3.60
2018-06-14T12:05:48.824Z,3.43
2018-06-14T12:08:16.844Z,4.10
2018-06-14T12:10:45.082Z,2.70
2018-06-14T12:13:13.146Z,6.90
2018-06-14T12:15:41.407Z,2.70
2018-06-14T12:18:09.646Z,3.67
2018-06-14T12:20:37.810Z,4.53
2018-06-14T12:23:06.178Z,3.20
2018-06-14T12:25:34.661Z,3.40
2018-06-14T12:28:03.102Z,3.53
2018-06-14T12:30:31.312Z,3.10
2018-06-14T12:32:59.717Z,3.30
2018-06-14T12:35:28.175Z,3.20
2018-06-14T12:37:57.465Z,3.27
2018-06-14T12:40:25.552Z,2.90
2018-06-14T12:42:54.174Z,3.30
2018-06-14T12:45:22.364Z,3.20
2018-06-14T12:47:50.548Z,2.47
2018-06-14T12:50:18.748Z,3.03
2018-06-14T12:52:46.945Z,2.63
2018-06-14T12:55:14.990Z,3.30
2018-06-14T12:57:43.104Z,2.87
2018-06-14T13:00:11.199Z,3.60
2018-06-14T13:02:39.281Z,3.00
2018-06-14T13:05:13.986Z,2.67
2018-06-14T13:07:42.141Z,3.47
2018-06-14T13:10:10.425Z,3.50
2018-06-14T13:12:38.682Z,3.40
2018-06-14T13:15:06.882Z,3.40
2018-06-14T13:17:35.681Z,3.53
2018-06-14T13:20:04.092Z,3.10
2018-06-14T13:22:32.440Z,2.87
2018-06-14T13:25:00.911Z,3.47
2018-06-14T13:27:29.566Z,2.70
2018-06-14T13:29:58.427Z,3.17
2018-06-14T13:32:26.591Z,3.47
2018-06-14T13:34:54.740Z,2.97
2018-06-14T13:37:22.966Z,3.20
2018-06-14T13:39:51.179Z,2.70
2018-06-14T13:42:19.646Z,4.67
2018-06-14T13:44:47.799Z,2.83
2018-06-14T13:47:15.870Z,2.93
2018-06-14T13:49:43.927Z,3.07
2018-06-14T13:52:12.133Z,2.97
2018-06-14T13:54:40.286Z,3.17
2018-06-14T13:57:08.397Z,2.90
2018-06-14T13:59:36.761Z,3.60
2018-06-14T14:02:05.372Z,2.93
2018-06-14T14:04:33.652Z,3.10
2018-06-14T14:07:04.767Z,4.03
2018-06-14T14:09:33.170Z,3.27
2018-06-14T14:12:01.640Z,3.40
2018-06-14T14:14:30.229Z,3.53
2018-06-14T14:16:58.714Z,3.23
2018-06-14T14:19:27.135Z,3.10
2018-06-14T14:21:55.516Z,3.50
2018-06-14T14:24:23.928Z,4.27
2018-06-14T14:26:57.432Z,3.10
2018-06-14T14:29:28.634Z,3.93
2018-06-14T14:31:56.936Z,3.97
2018-06-14T14:34:25.355Z,3.63
2018-06-14T14:36:53.934Z,4.17
2018-06-14T14:39:22.251Z,4.20
2018-06-14T14:41:50.755Z,3.50
2018-06-14T14:44:20.897Z,4.53
2018-06-14T14:49:23.920Z,3.23
2018-06-14T14:51:53.038Z,3.60
2018-06-14T14:54:21.956Z,2.87
2018-06-14T14:56:50.368Z,3.50
2018-06-14T14:59:20.643Z,9.40
2018-06-14T15:01:49.140Z,2.70
2018-06-14T15:04:17.352Z,3.13
2018-06-14T15:06:47.066Z,3.13
2018-06-14T15:09:15.293Z,3.43
2018-06-14T15:11:43.459Z,2.57
2018-06-14T15:14:11.737Z,2.87
2018-06-14T15:16:40.049Z,3.33
2018-06-14T15:19:08.405Z,3.20
2018-06-14T15:21:37.578Z,3.10
2018-06-14T15:24:05.907Z,2.83
2018-06-14T15:26:35.476Z,2.70
2018-06-14T15:29:04.338Z,2.60
2018-06-14T15:31:32.702Z,3.07
2018-06-14T15:34:01.317Z,3.07
2018-06-14T15:36:30.794Z,3.17
2018-06-14T15:38:59.597Z,2.90
2018-06-14T15:41:28.568Z,3.67
2018-06-14T15:43:56.514Z,3.37
2018-06-14T15:46:24.880Z,3.57
2018-06-14T15:48:53.302Z,3.20
2018-06-14T15:51:21.498Z,3.67
2018-06-14T15:53:49.767Z,2.63
2018-06-14T15:56:28.946Z,3.30
2018-06-14T15:58:57.236Z,4.20
2018-06-14T16:01:25.964Z,3.40
2018-06-14T16:03:54.619Z,3.27
2018-06-14T16:06:23.258Z,3.27
2018-06-14T16:08:51.482Z,3.00
2018-06-14T16:11:19.656Z,4.13
2018-06-14T16:13:48.838Z,3.20
2018-06-14T16:16:24.601Z,3.60
2018-06-14T16:18:53.221Z,3.83
2018-06-14T16:21:21.310Z,3.23
2018-06-14T16:23:49.925Z,3.73
2018-06-14T16:26:18.927Z,3.40
2018-06-14T16:28:47.031Z,3.23
2018-06-14T16:31:15.228Z,4.50
2018-06-14T16:33:43.581Z,3.30
2018-06-14T16:36:11.685Z,3.07
2018-06-14T16:38:40.417Z,3.60
2018-06-14T16:41:08.725Z,3.17
2018-06-14T16:43:37.246Z,3.60
2018-06-14T16:46:06.387Z,3.80
2018-06-14T16:48:34.719Z,4.77
2018-06-14T16:51:03.061Z,3.40
2018-06-14T16:53:31.421Z,3.13
2018-06-14T16:55:59.659Z,3.37
2018-06-14T16:58:30.162Z,3.60
2018-06-14T17:00:58.634Z,3.00
2018-06-14T17:03:26.680Z,2.40
2018-06-14T17:05:54.796Z,3.90
2018-06-14T17:08:23.731Z,3.03
2018-06-14T17:10:51.979Z,3.70
2018-06-14T17:13:20.336Z,4.50
2018-06-14T17:15:48.490Z,3.27
2018-06-14T17:18:16.644Z,4.27
2018-06-14T17:20:44.923Z,3.37
2018-06-14T17:23:18.940Z,4.03
2018-06-14T17:25:53.361Z,3.80
2018-06-14T17:28:21.782Z,4.40
2018-06-14T17:30:49.904Z,3.87
2018-06-14T17:33:18.154Z,3.47
2018-06-14T17:35:46.586Z,3.67
2018-06-14T17:38:14.580Z,4.20
2018-06-14T17:43:17.140Z,4.33
2018-06-14T17:45:45.721Z,4.43
2018-06-14T17:48:13.852Z,3.50
2018-06-14T17:50:42.113Z,4.23
2018-06-14T17:53:10.951Z,4.33
2018-06-14T17:55:39.033Z,4.40
2018-06-14T17:58:07.413Z,3.47
2018-06-14T18:00:38.173Z,3.80
2018-06-14T18:03:06.217Z,3.70
2018-06-14T18:05:34.362Z,3.10
2018-06-14T18:08:02.573Z,4.40
2018-06-14T18:10:30.704Z,3.60
2018-06-14T18:12:58.986Z,3.83
2018-06-14T18:15:26.974Z,4.10
2018-06-14T18:17:55.136Z,3.37
2018-06-14T18:20:23.171Z,3.98
2018-06-14T18:22:51.340Z,3.50
2018-06-14T18:25:19.447Z,4.37
2018-06-14T18:27:47.488Z,3.27
2018-06-14T18:30:15.510Z,4.87
2018-06-14T18:32:43.928Z,4.80
2018-06-14T18:35:11.913Z,4.47
2018-06-14T18:37:41.091Z,5.27
2018-06-14T18:40:09.400Z,4.07
2018-06-14T18:42:37.566Z,4.47
2018-06-14T18:45:05.784Z,3.80
2018-06-14T18:47:33.950Z,5.03
2018-06-14T18:50:02.017Z,3.90
2018-06-14T18:52:30.071Z,3.10
2018-06-14T18:54:58.250Z,4.20
2018-06-14T18:57:26.224Z,2.73
2018-06-14T18:59:54.262Z,3.53
2018-06-14T19:02:22.305Z,3.37
2018-06-14T19:04:50.323Z,4.30
2018-06-14T19:07:18.284Z,4.80
2018-06-14T19:09:46.236Z,3.70
2018-06-14T19:12:14.285Z,4.90
2018-06-14T19:14:42.253Z,5.33
2018-06-14T19:17:10.201Z,4.50
2018-06-14T19:19:38.189Z,6.33
2018-06-14T19:22:06.295Z,5.03
2018-06-14T19:24:34.365Z,3.87
2018-06-14T19:27:02.452Z,4.30
2018-06-14T19:29:30.478Z,5.00
2018-06-14T19:31:58.798Z,4.83
2018-06-14T19:34:27.169Z,4.20
2018-06-14T19:36:55.302Z,4.70
2018-06-14T19:39:23.354Z,4.60
2018-06-14T19:41:51.309Z,4.33
2018-06-14T19:44:19.310Z,4.90
2018-06-14T19:46:47.301Z,4.22
2018-06-14T19:49:15.493Z,4.43
2018-06-14T19:51:43.441Z,4.23
2018-06-14T19:54:11.410Z,4.10
2018-06-14T19:56:39.393Z,4.37
2018-06-14T19:59:07.484Z,4.40
2018-06-14T20:01:35.814Z,4.60
2018-06-14T20:04:03.921Z,4.60
2018-06-14T20:06:32.392Z,4.90
2018-06-14T20:09:00.686Z,5.33
2018-06-14T20:11:28.840Z,4.87
2018-06-14T20:13:56.809Z,4.60
2018-06-14T20:16:24.814Z,5.50
2018-06-14T20:18:52.840Z,4.80
2018-06-14T20:21:20.789Z,6.23
2018-06-14T20:23:48.737Z,7.50
2018-06-14T20:26:16.728Z,6.70
2018-06-14T20:28:44.739Z,5.03
2018-06-14T20:31:12.817Z,6.07
2018-06-14T20:33:40.749Z,6.23
2018-06-14T20:36:08.766Z,4.93
2018-06-14T20:39:40.403Z,5.30
2018-06-14T20:42:09.196Z,5.70
2018-06-14T20:44:37.269Z,5.80
2018-06-14T20:47:05.360Z,6.80
2018-06-14T20:49:34.932Z,7.90
2018-06-14T20:52:04.467Z,5.63
2018-06-14T20:54:33.262Z,5.70
2018-06-14T20:57:01.757Z,7.10
2018-06-14T20:59:30.195Z,6.57
2018-06-14T21:01:58.547Z,5.63
2018-06-14T21:04:26.649Z,6.50
2018-06-14T21:06:54.604Z,6.27
2018-06-14T21:09:25.364Z,5.30
2018-06-14T21:11:53.355Z,5.80
2018-06-14T21:14:21.275Z,5.87
2018-06-14T21:16:49.230Z,5.40
2018-06-14T21:19:17.238Z,6.50
2018-06-14T21:21:45.254Z,5.37
2018-06-14T21:24:13.941Z,6.23
2018-06-14T21:26:42.976Z,6.07
2018-06-14T21:29:13.261Z,5.70
2018-06-14T21:31:41.308Z,5.70
2018-06-14T21:34:09.467Z,6.37
2018-06-14T21:36:37.592Z,5.87
2018-06-14T21:39:06.775Z,6.70
2018-06-14T21:41:35.013Z,6.03
2018-06-14T21:44:03.996Z,5.10
2018-06-14T21:46:33.221Z,6.20
2018-06-14T21:49:02.007Z,5.43
2018-06-14T21:51:30.658Z,5.37
2018-06-14T21:53:59.206Z,5.60
2018-06-14T21:56:27.146Z,6.30
2018-06-14T21:58:55.104Z,5.63
2018-06-14T22:01:23.139Z,6.33
2018-06-14T22:03:58.090Z,5.97
2018-06-14T22:06:26.246Z,5.17
2018-06-14T22:08:54.248Z,5.67
2018-06-14T22:11:22.321Z,6.30
2018-06-14T22:13:50.243Z,5.73
2018-06-14T22:16:18.170Z,9.70
2018-06-14T22:18:46.107Z,6.70
2018-06-14T22:21:14.126Z,6.40
2018-06-14T22:23:42.129Z,6.27
2018-06-14T22:26:10.069Z,5.47
2018-06-14T22:28:38.021Z,5.40
2018-06-14T22:31:06.177Z,5.53
2018-06-14T22:33:40.976Z,5.77
2018-06-14T22:36:09.005Z,5.57
2018-06-14T22:38:37.165Z,6.87
2018-06-14T22:41:05.330Z,6.17
2018-06-14T22:43:33.597Z,6.47
2018-06-14T22:46:02.046Z,6.13
2018-06-14T22:48:30.690Z,5.90
2018-06-14T22:51:04.290Z,6.07
2018-06-14T22:53:32.506Z,7.10
2018-06-14T22:56:00.806Z,6.90
2018-06-14T22:58:28.953Z,7.60
2018-06-14T23:02:02.486Z,6.00
2018-06-14T23:04:31.339Z,7.00
2018-06-14T23:06:59.901Z,6.20
2018-06-14T23:10:39.357Z,6.33
2018-06-14T23:13:08.730Z,6.07
2018-06-14T23:15:36.894Z,7.30
2018-06-14T23:18:05.013Z,6.47
2018-06-14T23:20:34.272Z,7.47
2018-06-14T23:23:03.241Z,7.23
2018-06-14T23:25:31.978Z,6.70
2018-06-14T23:28:00.272Z,6.33
2018-06-14T23:30:28.339Z,6.40
2018-06-14T23:32:56.254Z,6.73
2018-06-14T23:35:24.179Z,6.50
2018-06-14T23:37:52.328Z,7.27
2018-06-14T23:40:20.396Z,6.50
2018-06-14T23:42:48.408Z,6.83
2018-06-14T23:45:16.326Z,7.80
2018-06-14T23:47:44.277Z,8.67
2018-06-14T23:50:12.306Z,8.63
2018-06-14T23:52:40.434Z,8.13
2018-06-14T23:55:08.569Z,7.67
2018-06-14T23:57:36.672Z,7.53
